Time;durP1;ratioP1;P1;durP2;ratioP2;P2;SDS_P1;SDS_P2;PMS_P1;PMS_P2;Temp;Humidity;BMP_temperature;BMP_pressure;BME280_temperature;BME280_humidity;BME280_pressure;Samples;Min_cycle;Max_cycle;Signal;HPM_P1;HPM_P2
2023/04/17 03:20:06;;;;;;;;;;;;;;;;;;;;;
2023/04/17 03:23:12;;;;;;;33.90;17.97;;;;;;;7.12;100.00;102471.47;4882286;29;20416;-95
2023/04/17 03:29:37;;;;;;;37.40;18.13;;;;;;;7.03;100.00;102462.78;4825708;29;20110;-94
2023/04/17 03:32:02;;;;;;;40.58;19.08;;;;;;;6.92;100.00;102453.47;4825583;29;20054;-94
2023/04/17 03:35:09;;;;;;;43.42;20.15;;;;;;;7.05;100.00;102457.25;4826446;29;20078;-94
2023/04/17 03:47:36;;;;;;;35.90;18.38;;;;;;;7.01;100.00;102456.81;5270962;23;20059;-95
2023/04/17 03:50:01;;;;;;;37.50;18.63;;;;;;;7.00;100.00;102465.84;4857929;29;20134;-93
2023/04/17 03:52:29;;;;;;;38.10;19.05;;;;;;;6.81;100.00;102428.19;4864455;29;20037;-92
2023/04/17 03:54:55;;;;;;;40.30;19.03;;;;;;;6.81;100.00;102433.50;4921615;29;20047;-93
2023/04/17 03:57:25;;;;;;;40.20;19.25;;;;;;;6.86;100.00;102437.44;4934424;29;20043;-95
2023/04/17 03:59:53;;;;;;;41.40;20.08;;;;;;;6.89;100.00;102445.88;4931063;29;20027;-96
2023/04/17 04:02:33;;;;;;;39.45;20.08;;;;;;;6.79;100.00;102427.53;4919090;29;20032;-93
2023/04/17 04:04:58;;;;;;;38.88;20.38;;;;;;;6.88;100.00;102440.75;4939646;29;20584;-93
2023/04/17 04:08:10;;;;;;;;;;;;;;;;;;;;;
2023/04/17 04:10:38;;;;;;;42.92;18.75;;;;;;;6.90;100.00;102446.72;4907306;29;20042;-93
2023/04/17 04:13:03;;;;;;;40.55;19.48;;;;;;;6.89;100.00;102453.03;4938549;29;20078;-94
2023/04/17 04:18:36;;;;;;;42.20;19.42;;;;;;;6.85;100.00;102438.47;4880689;29;20120;-93
2023/04/17 04:21:01;;;;;;;35.50;18.45;;;;;;;6.81;100.00;102432.69;4844494;29;20121;-94
2023/04/17 04:24:17;;;;;;;;;;;;;;;;;;;;;
2023/04/17 04:29:57;;;;;;;43.75;20.08;;;;;;;6.79;100.00;102432.88;4941903;23;20051;-94
2023/04/17 04:44:28;;;;;;;45.73;21.70;;;;;;;7.00;100.00;102476.50;5033212;23;20052;-93
2023/04/17 04:53:55;;;;;;;46.95;20.00;;;;;;;6.94;100.00;102474.59;4939146;29;20356;-96
2023/04/17 04:56:27;;;;;;;39.25;19.13;;;;;;;6.92;100.00;102466.81;4937941;29;20036;-93
2023/04/17 04:59:32;;;;;;;47.58;21.67;;;;;;;7.00;100.00;102476.50;4919715;29;20035;-91
2023/04/17 05:02:10;;;;;;;50.65;21.33;;;;;;;6.99;100.00;102471.38;4920560;29;20060;-92
2023/04/17 05:04:48;;;;;;;46.47;20.58;;;;;;;6.77;100.00;102450.88;4903167;29;20028;-93
2023/04/17 05:07:36;;;;;;;44.08;20.77;;;;;;;7.00;100.00;102492.50;4935062;29;20028;-96
2023/04/17 05:29:38;;;;;;;49.17;22.98;;;;;;;6.96;100.00;102496.56;3096073;27;20112;-95
2023/04/17 05:32:04;;;;;;;51.38;23.40;;;;;;;6.92;100.00;102485.47;4895078;29;20040;-94
2023/04/17 05:34:30;;;;;;;51.97;23.47;;;;;;;6.95;100.00;102490.41;4894390;29;20028;-93
2023/04/17 05:36:56;;;;;;;52.33;23.42;;;;;;;6.95;100.00;102500.22;4899829;29;20060;-89
2023/04/17 05:39:21;;;;;;;48.80;22.87;;;;;;;6.92;100.00;102492.66;4893172;29;20500;-89
2023/04/17 05:41:46;;;;;;;53.75;23.85;;;;;;;6.96;100.00;102502.72;4891413;29;20315;-89
2023/04/17 05:44:12;;;;;;;50.67;22.63;;;;;;;6.88;100.00;102491.38;4895738;29;20491;-90
2023/04/17 05:46:37;;;;;;;52.67;23.07;;;;;;;7.02;100.00;102505.63;4899722;29;20547;-89
2023/04/17 05:49:02;;;;;;;49.70;22.77;;;;;;;7.01;100.00;102512.00;4899489;29;20095;-89
2023/04/17 05:51:28;;;;;;;52.13;23.13;;;;;;;7.02;100.00;102505.63;4897985;29;20147;-88
2023/04/17 05:53:53;;;;;;;69.88;23.05;;;;;;;7.09;100.00;102512.66;4898210;29;20506;-89
2023/04/17 05:56:19;;;;;;;49.97;22.57;;;;;;;7.09;100.00;102509.16;4895647;29;20089;-88
2023/04/17 05:58:44;;;;;;;54.50;23.70;;;;;;;7.06;100.00;102505.06;4898108;29;20418;-89
2023/04/17 06:01:11;;;;;;;55.15;23.95;;;;;;;7.11;100.00;102515.97;4897532;29;20032;-89
2023/04/17 06:03:37;;;;;;;56.50;24.20;;;;;;;7.07;100.00;102505.88;4902464;29;20039;-89
2023/04/17 06:06:02;;;;;;;53.30;22.67;;;;;;;7.19;100.00;102519.50;4904788;29;20033;-89
2023/04/17 06:08:28;;;;;;;53.83;22.93;;;;;;;7.19;100.00;102516.84;4893175;29;20044;-89
2023/04/17 06:10:54;;;;;;;52.93;21.63;;;;;;;7.24;100.00;102525.09;4894332;29;20112;-88
2023/04/17 06:13:22;;;;;;;49.63;22.25;;;;;;;7.27;100.00;102528.19;4906422;29;20438;-86
2023/04/17 06:15:50;;;;;;;52.90;24.13;;;;;;;7.28;100.00;102529.03;4895979;29;20440;-88
2023/04/17 06:18:16;;;;;;;50.72;22.55;;;;;;;7.28;100.00;102534.34;4892118;29;20028;-88
2023/04/17 06:20:42;;;;;;;55.15;23.30;;;;;;;7.28;100.00;102531.69;4885713;29;20401;-88
2023/04/17 06:23:08;;;;;;;53.63;24.38;;;;;;;7.27;100.00;102532.69;4864448;29;20088;-88
2023/04/17 06:25:34;;;;;;;50.40;22.93;;;;;;;7.27;100.00;102532.69;4890532;29;20028;-88
2023/04/17 06:28:00;;;;;;;53.88;24.77;;;;;;;7.24;100.00;102527.75;4891172;29;20061;-89
2023/04/17 06:30:26;;;;;;;58.43;26.83;;;;;;;7.26;100.00;102539.06;4890135;29;20037;-89
2023/04/17 06:32:51;;;;;;;55.75;24.98;;;;;;;7.32;100.00;102540.13;4891197;29;20382;-90
2023/04/17 06:35:17;;;;;;;52.57;23.53;;;;;;;7.32;100.00;102535.59;4895226;29;20122;-92
2023/04/17 06:37:42;;;;;;;53.13;23.83;;;;;;;7.33;100.00;102534.56;4893583;29;20115;-87
2023/04/17 06:40:11;;;;;;;51.53;23.67;;;;;;;7.32;100.00;102532.13;4892140;29;20037;-88
2023/04/17 06:42:36;;;;;;;46.97;22.27;;;;;;;7.38;100.00;102545.50;4894257;29;20021;-88
2023/04/17 06:45:02;;;;;;;49.58;22.45;;;;;;;7.45;100.00;102539.41;4892155;29;20033;-87
2023/04/17 06:47:27;;;;;;;48.60;23.30;;;;;;;7.53;100.00;102548.06;4893978;29;20040;-87
2023/04/17 06:49:56;;;;;;;48.53;23.20;;;;;;;7.58;100.00;102539.47;4890911;29;20093;-89
2023/04/17 06:52:22;;;;;;;52.10;22.50;;;;;;;7.65;100.00;102553.69;4896039;29;20300;-89
2023/04/17 06:54:47;;;;;;;45.63;22.15;;;;;;;7.68;100.00;102545.28;4894373;29;20570;-88
2023/04/17 06:57:12;;;;;;;50.50;23.87;;;;;;;7.70;100.00;102550.44;4891838;29;20029;-88
2023/04/17 06:59:39;;;;;;;46.77;22.53;;;;;;;7.73;100.00;102561.53;4892238;29;20032;-88
2023/04/17 07:02:04;;;;;;;44.42;22.92;;;;;;;7.76;100.00;102564.81;4876871;29;20116;-88
2023/04/17 07:04:30;;;;;;;48.60;23.53;;;;;;;7.76;100.00;102562.16;4880801;29;20123;-88
2023/04/17 07:06:55;;;;;;;48.90;23.00;;;;;;;7.67;100.00;102559.63;4885952;29;20040;-88
2023/04/17 07:09:21;;;;;;;50.40;22.73;;;;;;;7.65;100.00;102569.69;4895117;29;20041;-88
2023/04/17 07:11:46;;;;;;;55.20;24.00;;;;;;;7.65;100.00;102569.69;4898830;29;20040;-88
2023/04/17 07:14:12;;;;;;;49.57;21.37;;;;;;;7.62;100.00;102572.75;4882614;29;20040;-88
2023/04/17 07:16:37;;;;;;;52.92;23.45;;;;;;;7.63;100.00;102574.41;4881290;29;20078;-88
2023/04/17 07:19:02;;;;;;;52.20;23.47;;;;;;;7.65;100.00;102572.38;4890755;29;20084;-90
2023/04/17 07:21:29;;;;;;;50.43;23.00;;;;;;;7.68;100.00;102581.81;4892432;29;20121;-89
2023/04/17 07:23:54;;;;;;;50.53;23.35;;;;;;;7.73;100.00;102582.06;4893292;29;20033;-89
2023/04/17 07:26:20;;;;;;;45.35;23.08;;;;;;;7.78;100.00;102592.94;4888446;29;20037;-92
2023/04/17 07:28:45;;;;;;;47.13;23.87;;;;;;;7.83;100.00;102595.06;4894865;29;20028;-90
2023/04/17 07:31:11;;;;;;;49.90;24.00;;;;;;;7.86;100.00;102592.81;4895604;29;20055;-88
2023/04/17 07:33:37;;;;;;;49.05;22.83;;;;;;;7.98;100.00;102592.25;4879882;29;20033;-90
2023/04/17 07:36:08;;;;;;;46.35;24.17;;;;;;;8.18;100.00;102587.84;4893479;29;20032;-90
2023/04/17 07:38:34;;;;;;;45.13;21.97;;;;;;;8.29;100.00;102589.13;4895755;29;20024;-88
2023/04/17 07:40:59;;;;;;;51.95;24.50;;;;;;;8.37;100.00;102596.16;4899999;29;20035;-88
2023/04/17 07:43:28;;;;;;;56.07;23.73;;;;;;;8.38;100.00;102592.44;4896904;29;20090;-89
2023/04/17 07:45:54;;;;;;;52.28;23.98;;;;;;;8.39;100.00;102588.75;4898342;29;20029;-88
2023/04/17 07:48:21;;;;;;;50.33;26.30;;;;;;;8.39;100.00;102596.78;4905021;29;20048;-89
2023/04/17 07:50:48;;;;;;;47.47;23.90;;;;;;;8.37;100.00;102598.00;4911663;29;20032;-91
2023/04/17 07:53:13;;;;;;;47.67;24.45;;;;;;;8.37;100.00;102590.00;4912767;29;20036;-91
2023/04/17 07:55:38;;;;;;;45.63;24.43;;;;;;;8.43;100.00;102591.84;4900511;29;20047;-92
2023/04/17 07:58:05;;;;;;;44.00;22.67;;;;;;;8.52;100.00;102592.53;4904090;29;20037;-92
2023/04/17 08:00:31;;;;;;;45.55;23.98;;;;;;;8.68;100.00;102588.69;4898433;29;20088;-91
2023/04/17 08:02:58;;;;;;;47.08;24.42;;;;;;;8.97;100.00;102602.72;4899111;29;20036;-90
2023/04/17 08:05:23;;;;;;;45.85;22.85;;;;;;;9.23;100.00;102604.59;4896613;29;20029;-92
2023/04/17 08:07:49;;;;;;;38.42;21.38;;;;;;;9.31;100.00;102601.72;4897470;29;20457;-92
2023/04/17 08:10:15;;;;;;;36.67;20.73;;;;;;;9.31;100.00;102601.72;4900354;29;20177;-90
2023/04/17 08:12:40;;;;;;;42.27;21.83;;;;;;;9.27;100.00;102597.00;4908497;29;20112;-90
2023/04/17 08:15:06;;;;;;;43.30;22.33;;;;;;;9.32;100.00;102600.69;4913150;29;20289;-91
2023/04/17 08:17:32;;;;;;;42.30;22.20;;;;;;;9.54;100.00;102608.50;4907828;29;20028;-89
2023/04/17 08:19:57;;;;;;;42.13;21.20;;;;;;;9.66;100.00;102606.03;4904288;29;20002;-88
2023/04/17 08:22:24;;;;;;;40.73;19.80;;;;;;;9.85;100.00;102621.25;4902884;29;20036;-88
2023/04/17 08:24:53;;;;;;;39.72;20.95;;;;;;;10.01;100.00;102613.78;4910060;29;20040;-90
2023/04/17 08:27:19;;;;;;;35.45;19.50;;;;;;;10.14;100.00;102611.06;4904795;29;20036;-89
2023/04/17 08:29:44;;;;;;;35.00;19.60;;;;;;;10.21;100.00;102613.72;4898177;29;20043;-89
2023/04/17 08:32:10;;;;;;;37.20;20.37;;;;;;;10.28;100.00;102616.38;4902616;29;20028;-89
2023/04/17 08:34:37;;;;;;;40.17;20.90;;;;;;;10.35;100.00;102611.00;4903439;29;20089;-88
2023/04/17 08:37:03;;;;;;;33.00;19.02;;;;;;;10.35;100.00;102619.88;4917912;29;20032;-89
2023/04/17 08:39:29;;;;;;;34.38;19.08;;;;;;;10.19;100.00;102617.66;4911707;29;20048;-91
2023/04/17 08:41:59;;;;;;;33.05;19.60;;;;;;;9.95;100.00;102612.75;4910247;29;20013;-91
2023/04/17 08:44:25;;;;;;;36.97;20.10;;;;;;;9.84;100.00;102622.28;4911259;29;20044;-89
2023/04/17 08:46:51;;;;;;;37.00;20.08;;;;;;;9.79;100.00;102618.56;4909639;29;20033;-90
2023/04/17 08:49:17;;;;;;;40.53;19.75;;;;;;;9.85;100.00;102618.56;4926031;29;20043;-90
2023/04/17 08:51:42;;;;;;;37.03;20.07;;;;;;;10.04;100.00;102616.06;4917923;29;20020;-90
2023/04/17 08:54:08;;;;;;;41.90;20.57;;;;;;;10.26;100.00;102618.44;4902592;29;20100;-90
2023/04/17 08:56:33;;;;;;;37.28;20.65;;;;;;;10.52;100.00;102612.19;4901289;29;20043;-91
2023/04/17 08:58:58;;;;;;;36.17;20.10;;;;;;;10.66;100.00;102612.13;4901903;29;20039;-90
2023/04/17 09:01:24;;;;;;;36.53;19.97;;;;;;;10.72;100.00;102614.78;4900486;29;20032;-91
2023/04/17 09:03:50;;;;;;;34.63;19.92;;;;;;;10.83;100.00;102615.13;4898917;29;20602;-90
2023/04/17 09:06:16;;;;;;;36.33;20.13;;;;;;;10.94;100.00;102619.81;4899547;29;20032;-90
2023/04/17 09:08:56;;;;;;;37.60;20.05;;;;;;;11.24;100.00;102619.19;4899271;29;20068;-90
2023/04/17 09:11:22;;;;;;;40.63;20.07;;;;;;;11.32;100.00;102626.94;4898272;29;20024;-91
2023/04/17 09:13:47;;;;;;;32.90;19.33;;;;;;;11.41;100.00;102613.25;4898881;29;20325;-90
2023/04/17 09:16:14;;;;;;;33.77;19.17;;;;;;;11.36;99.88;102627.34;4898644;29;20041;-91
2023/04/17 09:18:41;;;;;;;36.42;20.20;;;;;;;11.37;99.40;102629.00;4898481;29;20080;-91
2023/04/17 09:21:08;;;;;;;34.65;19.52;;;;;;;11.27;98.74;102626.78;4897247;29;20836;-92
2023/04/17 09:23:48;;;;;;;38.13;20.55;;;;;;;11.55;99.96;102632.78;4899929;29;20088;-91
2023/04/17 09:26:17;;;;;;;35.03;19.53;;;;;;;11.82;94.89;102627.97;4898694;29;20551;-91
2023/04/17 09:29:00;;;;;;;35.50;19.37;;;;;;;12.09;96.54;102633.09;4897221;29;20292;-91
2023/04/17 09:31:29;;;;;;;37.30;19.27;;;;;;;12.29;95.46;102629.34;4896522;29;20507;-91
2023/04/17 09:33:58;;;;;;;33.45;19.75;;;;;;;12.44;92.22;102632.47;4898693;29;20115;-91
2023/04/17 09:36:23;;;;;;;33.92;19.42;;;;;;;12.52;92.48;102628.63;4888549;29;20068;-91
2023/04/17 09:38:49;;;;;;;32.80;19.03;;;;;;;12.52;90.99;102625.94;4896799;29;20033;-90
2023/04/17 09:41:21;;;;;;;33.17;20.00;;;;;;;12.62;91.00;102628.94;4898504;29;20400;-92
2023/04/17 09:43:48;;;;;;;35.13;19.25;;;;;;;12.74;91.17;102631.69;4898632;29;20055;-91
2023/04/17 09:46:40;;;;;;;34.20;20.40;;;;;;;12.68;91.90;102624.50;4897760;29;20028;-91
2023/04/17 09:49:14;;;;;;;32.13;18.83;;;;;;;12.85;91.24;102622.81;4896674;29;20051;-91
2023/04/17 09:51:40;;;;;;;35.37;18.87;;;;;;;12.95;88.04;102614.19;4897682;29;20686;-91
2023/04/17 09:54:08;;;;;;;34.92;19.83;;;;;;;12.99;86.35;102626.13;4896728;29;20033;-89
2023/04/17 09:56:35;;;;;;;29.90;19.27;;;;;;;12.87;86.12;102625.28;4908342;29;20028;-90
2023/04/17 09:59:03;;;;;;;36.15;20.00;;;;;;;12.62;84.36;102623.56;4908123;29;20032;-90
2023/04/17 10:01:32;;;;;;;31.23;18.83;;;;;;;12.76;86.88;102624.19;4897284;29;20037;-89
2023/04/17 10:03:59;;;;;;;31.77;19.58;;;;;;;12.99;85.81;102622.59;4897499;29;20067;-89
2023/04/17 10:06:28;;;;;;;37.22;19.92;;;;;;;13.33;85.43;102622.91;4911908;29;20058;-90
2023/04/17 10:08:55;;;;;;;33.27;19.07;;;;;;;13.57;82.06;102615.72;4897915;29;20044;-88
2023/04/17 10:11:27;;;;;;;31.33;18.15;;;;;;;13.81;81.05;102622.97;4897054;29;20060;-91
2023/04/17 10:14:23;;;;;;;31.70;18.25;;;;;;;14.00;82.96;102621.78;4896202;29;20478;-89
2023/04/17 10:16:49;;;;;;;30.48;18.63;;;;;;;14.00;76.86;102616.38;4891355;29;20047;-90
2023/04/17 10:19:35;;;;;;;32.25;18.63;;;;;;;14.02;79.97;102608.88;4895392;29;20131;-91
2023/04/17 10:22:13;;;;;;;33.03;19.38;;;;;;;14.05;78.56;102613.78;4895695;29;20492;-91
2023/04/17 10:24:38;;;;;;;31.55;18.50;;;;;;;14.12;76.80;102610.13;4898716;29;20017;-91
2023/04/17 10:27:23;;;;;;;29.60;18.20;;;;;;;14.30;76.52;102615.34;4893300;29;20028;-93
2023/04/17 10:29:56;;;;;;;31.20;18.67;;;;;;;14.50;75.34;102611.41;4895984;29;20460;-92
2023/04/17 10:32:33;;;;;;;29.15;17.60;;;;;;;14.84;74.95;102608.81;4898775;29;20024;-94
2023/04/17 10:35:20;;;;;;;32.73;18.00;;;;;;;14.95;70.59;102607.97;4899504;29;20024;-94
2023/04/17 10:37:47;;;;;;;29.10;18.57;;;;;;;15.34;69.35;102618.03;4900262;29;20403;-94
2023/04/17 10:40:33;;;;;;;33.05;18.77;;;;;;;15.57;68.72;102617.00;4913881;29;20032;-95
2023/04/17 10:43:21;;;;;;;28.77;17.33;;;;;;;15.98;70.43;102619.47;4918178;29;20068;-95
2023/04/17 10:46:09;;;;;;;25.70;17.58;;;;;;;16.16;65.90;102617.53;4913067;29;20041;-91
2023/04/17 10:48:45;;;;;;;56.22;17.92;;;;;;;16.16;64.95;102612.94;4893399;29;20409;-88
2023/04/17 10:51:22;;;;;;;33.05;17.85;;;;;;;16.13;67.26;102607.25;4911431;29;20050;-91
2023/04/17 10:54:01;;;;;;;33.10;18.67;;;;;;;16.26;66.96;102609.56;4904917;29;20525;-94
2023/04/17 10:56:39;;;;;;;31.98;18.08;;;;;;;16.31;65.12;102608.78;4900128;29;20456;-92
2023/04/17 10:59:10;;;;;;;30.20;16.33;;;;;;;16.45;63.30;102607.31;4893806;29;20036;-93
2023/04/17 11:01:51;;;;;;;29.33;17.13;;;;;;;16.70;65.83;102611.38;4892161;29;20304;-89
2023/04/17 11:04:26;;;;;;;29.67;16.58;;;;;;;17.02;61.74;102597.06;4896946;29;20028;-92
2023/04/17 11:06:52;;;;;;;26.08;15.80;;;;;;;17.07;57.63;102590.88;4902924;29;20100;-91
2023/04/17 11:09:23;;;;;;;27.33;17.02;;;;;;;16.77;58.74;102593.03;4912407;29;20039;-92
2023/04/17 11:11:49;;;;;;;22.83;14.93;;;;;;;16.76;60.09;102590.56;4915796;29;20041;-92
2023/04/17 11:14:17;;;;;;;25.83;17.20;;;;;;;16.30;58.50;102594.47;4917342;29;20507;-92
2023/04/17 11:16:46;;;;;;;27.17;16.98;;;;;;;16.03;61.62;102586.31;4917215;29;20024;-92
2023/04/17 11:19:17;;;;;;;30.37;17.80;;;;;;;15.84;63.79;102578.47;4917620;29;20029;-90
2023/04/17 11:21:43;;;;;;;30.10;17.33;;;;;;;15.90;63.13;102595.59;4919039;29;20308;-92
2023/04/17 11:24:09;;;;;;;28.90;16.83;;;;;;;15.72;63.50;102588.56;4917694;29;20017;-93
2023/04/17 11:26:44;;;;;;;28.42;17.05;;;;;;;15.87;64.48;102591.53;4914211;29;20089;-92
2023/04/17 11:29:15;;;;;;;26.63;17.30;;;;;;;15.90;62.70;102590.19;4908373;29;20040;-93
2023/04/17 11:31:41;;;;;;;27.83;16.97;;;;;;;15.99;62.97;102591.38;4919216;29;20061;-90
2023/04/17 11:34:08;;;;;;;25.87;16.40;;;;;;;16.10;60.63;102584.22;4917614;29;20720;-91
2023/04/17 11:36:34;;;;;;;29.20;17.33;;;;;;;16.01;61.28;102593.84;4917360;29;20021;-91
2023/04/17 11:39:00;;;;;;;24.77;16.08;;;;;;;15.81;59.88;102581.66;4914317;29;20024;-91
2023/04/17 11:41:37;;;;;;;25.98;15.88;;;;;;;15.61;61.85;102584.94;4916789;29;20045;-92
2023/04/17 11:44:05;;;;;;;25.23;16.53;;;;;;;15.47;62.58;102584.47;4917643;29;20414;-92
2023/04/17 11:46:31;;;;;;;28.10;17.58;;;;;;;15.60;61.88;102588.69;4912901;29;20036;-92
2023/04/17 11:48:57;;;;;;;28.63;15.97;;;;;;;15.74;60.94;102586.44;4917490;29;20076;-92
2023/04/17 11:51:31;;;;;;;24.25;16.30;;;;;;;15.75;62.21;102588.91;4913635;29;20033;-93
2023/04/17 11:53:56;;;;;;;26.67;16.75;;;;;;;15.90;59.88;102573.97;4915138;29;20905;-92
2023/04/17 11:56:28;;;;;;;28.50;17.40;;;;;;;16.10;61.46;102576.09;4907643;29;20052;-93
2023/04/17 11:58:55;;;;;;;30.77;18.07;;;;;;;16.17;58.99;102582.13;4901930;29;20039;-92
2023/04/17 12:01:24;;;;;;;28.97;17.70;;;;;;;16.03;57.63;102570.88;4901013;29;20301;-91
2023/04/17 12:03:50;;;;;;;28.40;17.58;;;;;;;15.78;59.21;102568.66;4900722;29;20037;-92
2023/04/17 12:06:16;;;;;;;28.50;16.80;;;;;;;15.68;58.37;102573.94;4900683;29;20029;-92
2023/04/17 12:08:44;;;;;;;27.90;18.23;;;;;;;15.72;58.65;102573.19;4881904;29;20025;-92
2023/04/17 12:11:22;;;;;;;31.10;19.70;;;;;;;15.57;59.57;102568.38;4888801;29;20040;-93
2023/04/17 12:13:47;;;;;;;31.48;19.95;;;;;;;15.43;58.59;102572.50;4898510;29;20362;-94
2023/04/17 12:16:12;;;;;;;27.90;18.47;;;;;;;15.64;59.44;102579.00;4900574;29;20036;-89
2023/04/17 12:18:38;;;;;;;29.20;18.60;;;;;;;15.89;58.66;102578.53;4898047;29;20308;-92
2023/04/17 12:21:03;;;;;;;34.60;18.70;;;;;;;16.28;58.70;102582.25;4901629;29;20467;-92
2023/04/17 12:23:30;;;;;;;25.37;17.23;;;;;;;16.54;57.15;102580.63;4900526;29;20025;-92
2023/04/17 12:25:55;;;;;;;27.50;18.77;;;;;;;16.54;55.92;102575.19;4894227;29;20040;-90
2023/04/17 12:28:21;;;;;;;30.63;17.67;;;;;;;16.55;54.90;102570.63;4897354;29;20429;-90
2023/04/17 12:30:46;;;;;;;27.58;17.35;;;;;;;16.79;56.53;102573.81;4897601;29;20025;-92
2023/04/17 12:33:11;;;;;;;28.43;17.73;;;;;;;16.94;57.17;102578.56;4900848;29;20040;-94
2023/04/17 12:35:37;;;;;;;26.00;16.00;;;;;;;16.73;54.50;102577.53;4887097;29;20468;-92
2023/04/17 12:38:02;;;;;;;29.30;15.95;;;;;;;16.39;53.10;102581.31;4900519;29;20541;-90
2023/04/17 12:40:31;;;;;;;23.33;15.40;;;;;;;16.01;53.06;102585.72;4904745;29;20055;-96
2023/04/17 12:42:56;;;;;;;27.73;16.25;;;;;;;15.89;55.93;102575.84;4919562;29;20016;-94
2023/04/17 12:45:24;;;;;;;27.37;16.57;;;;;;;15.89;56.96;102580.44;4905351;29;20504;-96
2023/04/17 12:47:50;;;;;;;32.60;15.95;;;;;;;15.94;54.45;102579.69;4903971;29;20029;-95
2023/04/17 12:50:15;;;;;;;23.70;15.63;;;;;;;16.06;55.59;102577.69;4909807;29;20032;-95
2023/04/17 12:52:41;;;;;;;27.03;15.77;;;;;;;16.17;55.42;102578.59;4912827;29;20060;-95
2023/04/17 12:55:07;;;;;;;88.00;20.85;;;;;;;16.31;55.09;102569.03;4907238;29;20036;-94
2023/04/17 12:57:34;;;;;;;394.85;51.40;;;;;;;16.39;52.75;102573.19;4905275;29;20028;-89
2023/04/17 12:59:59;;;;;;;1218.28;118.72;;;;;;;16.34;53.62;102571.22;4905545;29;20029;-96
2023/04/17 13:02:25;;;;;;;59.73;16.03;;;;;;;16.50;51.75;102563.28;4915054;29;20036;-96
2023/04/17 13:04:51;;;;;;;46.87;15.93;;;;;;;16.68;52.13;102558.56;4910887;29;20020;-96
2023/04/17 13:07:20;;;;;;;38.30;14.80;;;;;;;16.94;53.12;102551.47;4912961;29;20045;-96
2023/04/17 13:09:45;;;;;;;24.25;14.07;;;;;;;17.08;50.67;102547.28;4912863;29;20068;-95
2023/04/17 13:12:12;;;;;;;1903.67;231.73;;;;;;;17.11;50.18;102551.34;4906133;29;20384;-94
2023/04/17 13:14:38;;;;;;;1755.47;200.77;;;;;;;17.21;50.77;102551.44;4906868;29;20047;-95
2023/04/17 13:17:04;;;;;;;1999.90;269.08;;;;;;;17.48;50.74;102546.97;4906313;29;20021;-93
2023/04/17 13:19:33;;;;;;;1038.40;101.90;;;;;;;17.54;49.85;102548.63;4914409;29;20488;-88
2023/04/17 13:21:59;;;;;;;47.88;15.13;;;;;;;17.24;50.46;102550.09;4903586;29;20021;-96
2023/04/17 13:24:26;;;;;;;78.47;17.87;;;;;;;16.94;49.49;102546.06;4906021;29;20039;-94
2023/04/17 13:26:52;;;;;;;603.75;69.30;;;;;;;16.98;50.54;102546.38;4907929;29;20032;-94
2023/04/17 13:29:17;;;;;;;1999.90;553.35;;;;;;;16.81;50.10;102547.31;4909978;29;20065;-90
2023/04/17 13:31:43;;;;;;;456.27;47.27;;;;;;;16.94;50.44;102540.66;4910276;29;20029;-93
2023/04/17 13:34:10;;;;;;;55.30;15.80;;;;;;;17.18;49.92;102534.88;4906267;29;20032;-88
2023/04/17 13:36:35;;;;;;;22.65;14.27;;;;;;;17.14;49.68;102529.16;4902896;29;20029;-88
2023/04/17 13:39:01;;;;;;;116.05;21.40;;;;;;;17.10;49.99;102531.59;4914897;29;20035;-90
2023/04/17 13:41:26;;;;;;;26.83;13.63;;;;;;;16.87;49.42;102540.03;4902598;29;20131;-95
2023/04/17 13:43:52;;;;;;;1999.90;259.23;;;;;;;16.90;50.43;102534.91;4902411;29;20055;-93
2023/04/17 13:46:18;;;;;;;124.07;22.15;;;;;;;17.09;50.38;102526.41;4898737;29;20400;-92
2023/04/17 13:48:44;;;;;;;21.90;14.40;;;;;;;17.37;49.95;102533.38;4898691;29;20107;-87
2023/04/17 13:51:09;;;;;;;44.95;14.00;;;;;;;17.61;48.26;102527.53;4899978;29;20037;-94
2023/04/17 13:53:35;;;;;;;1974.87;220.57;;;;;;;17.71;45.71;102527.56;4908346;29;20039;-93
2023/04/17 13:56:00;;;;;;;89.75;16.05;;;;;;;17.65;45.74;102520.50;4906825;29;20039;-93
2023/04/17 13:58:26;;;;;;;1999.90;407.57;;;;;;;17.71;45.31;102518.63;4908960;29;20028;-95
2023/04/17 14:00:52;;;;;;;305.20;38.77;;;;;;;17.78;44.43;102511.06;4892433;29;20096;-91
2023/04/17 14:03:17;;;;;;;1999.90;422.07;;;;;;;18.14;46.84;102515.78;4910889;29;20273;-93
2023/04/17 14:05:42;;;;;;;544.73;64.00;;;;;;;18.43;44.90;102526.16;4895410;29;20025;-95
2023/04/17 14:08:08;;;;;;;154.03;22.60;;;;;;;18.48;44.04;102509.06;4900580;29;20036;-92
2023/04/17 14:10:34;;;;;;;43.88;11.85;;;;;;;18.81;45.68;102518.53;4902746;29;20041;-94
2023/04/17 14:12:59;;;;;;;24.87;12.07;;;;;;;18.70;44.53;102516.94;4886813;29;20021;-87
2023/04/17 14:15:25;;;;;;;19.85;12.50;;;;;;;18.60;44.43;102515.03;4891519;29;20028;-86
2023/04/17 14:17:50;;;;;;;109.37;15.13;;;;;;;18.64;44.04;102515.28;4895069;29;20072;-87
2023/04/17 14:20:17;;;;;;;152.93;17.07;;;;;;;18.60;43.68;102521.28;4895109;29;20059;-90
2023/04/17 14:22:42;;;;;;;82.28;13.68;;;;;;;18.49;44.65;102510.69;4895309;29;20029;-88
2023/04/17 14:25:08;;;;;;;213.05;20.42;;;;;;;18.26;45.92;102508.22;4896100;29;20024;-87
2023/04/17 14:27:35;;;;;;;110.77;16.47;;;;;;;18.06;46.61;102511.72;4896149;29;20032;-91
2023/04/17 14:30:00;;;;;;;37.58;13.68;;;;;;;17.74;46.94;102503.72;4896666;29;20527;-88
2023/04/17 14:32:25;;;;;;;38.97;14.27;;;;;;;17.59;48.56;102501.78;4895014;29;20039;-91
2023/04/17 14:34:51;;;;;;;34.93;13.30;;;;;;;17.75;48.46;102499.94;4897305;29;20028;-89
2023/04/17 14:37:16;;;;;;;32.10;11.23;;;;;;;17.93;46.14;102506.78;4896292;29;20120;-86
2023/04/17 14:39:42;;;;;;;45.30;12.53;;;;;;;17.91;45.21;102493.47;4893626;29;20297;-90
2023/04/17 14:42:07;;;;;;;99.43;14.17;;;;;;;18.14;44.81;102494.94;4935517;23;20055;-85
2023/04/17 14:44:32;;;;;;;191.13;18.43;;;;;;;18.25;44.92;102492.22;4918515;29;20082;-87
2023/04/17 14:46:57;;;;;;;58.80;12.80;;;;;;;18.34;44.42;102487.91;4913917;29;20028;-84
2023/04/17 14:49:23;;;;;;;17.37;10.80;;;;;;;18.69;44.33;102485.44;4920825;29;20036;-84
2023/04/17 14:51:48;;;;;;;17.00;10.97;;;;;;;18.75;42.45;102484.34;4933321;29;20447;-87
2023/04/17 14:54:13;;;;;;;65.72;12.15;;;;;;;18.68;43.25;102490.06;4928491;29;20099;-89
2023/04/17 14:56:39;;;;;;;20.07;11.70;;;;;;;18.37;44.20;102483.81;4933328;29;20036;-89
2023/04/17 14:59:04;;;;;;;17.00;10.33;;;;;;;18.01;43.69;102487.28;4913733;29;20487;-91
2023/04/17 15:01:30;;;;;;;20.50;10.17;;;;;;;17.79;44.57;102492.91;4915571;29;20107;-87
2023/04/17 15:03:55;;;;;;;18.03;10.33;;;;;;;17.56;44.65;102490.38;4915961;29;20046;-91
2023/04/17 15:06:21;;;;;;;17.05;10.75;;;;;;;17.30;47.08;102489.44;4918377;29;20506;-94
2023/04/17 15:08:47;;;;;;;18.50;10.67;;;;;;;17.32;45.46;102498.13;4920548;29;20032;-94
2023/04/17 15:11:12;;;;;;;25.42;10.63;;;;;;;17.18;44.98;102480.69;4913778;29;20052;-84
2023/04/17 15:13:40;;;;;;;17.10;10.80;;;;;;;17.12;46.57;102487.19;4912554;29;20066;-91
2023/04/17 15:16:08;;;;;;;17.40;10.52;;;;;;;16.94;46.49;102479.19;4915659;29;20020;-88
2023/04/17 15:18:34;;;;;;;214.75;18.55;;;;;;;16.80;46.68;102483.41;4914271;29;20091;-91
2023/04/17 15:21:00;;;;;;;18.83;10.95;;;;;;;16.66;45.78;102472.22;4915050;29;20073;-92
2023/04/17 15:23:27;;;;;;;53.42;12.40;;;;;;;16.71;45.95;102472.25;4924255;29;20020;-94
2023/04/17 15:25:54;;;;;;;21.43;10.73;;;;;;;16.97;47.05;102472.47;4924775;29;20168;-95
2023/04/17 15:28:19;;;;;;;18.48;9.60;;;;;;;17.27;43.36;102473.72;4884120;29;20047;-93
2023/04/17 15:30:45;;;;;;;16.75;9.77;;;;;;;17.36;43.66;102477.53;4914665;29;20032;-91
2023/04/17 15:33:11;;;;;;;14.53;9.60;;;;;;;17.63;45.07;102482.00;4913860;29;20715;-90
2023/04/17 15:35:37;;;;;;;14.00;9.93;;;;;;;17.84;44.99;102468.53;4917003;29;20016;-92